Nearby METAR Reports


KEDC - Austin Exec, Texas, USA
Distance from station: SW 16mi, 25km
Updated: Tue, 18-Dec-2018 4:35am CST
Mist, Clear
Mist, Clear
 Wind from calm
Wind: Calm
Temperature: 43°F , 6°C
Dew Point: 39°F , 4°C
Humidity: 87%
Barometer: 30.11 inHg , 1019.6 hPa
Summary: Mist
Clouds: Clear
Visibility: 5 miles , 8 km
2018/12/18 10:35 KEDC 181035Z AUTO 00000KT 5SM BR CLR 06/04 A3011 RMK AO2
KGTU - Georgetown, Texas, USA
Distance from station: WNW 17mi, 28km
Updated: Tue, 18-Dec-2018 3:56am CST
Clear
Clear
 Wind from calm
Wind: Calm
Temperature: 32°F , 0°C
Dew Point: 30°F , -1°C
Humidity: 93%
Barometer: 30.13 inHg , 1020.3 hPa
Clouds: Clear
Visibility: 10 miles , 16 km
2018/12/18 09:56 KGTU 180956Z AUTO 00000KT 10SM CLR 00/M01 A3013 RMK AO2 SLP205 T00001011 FZRANO
 
KATT - Austin/Mabry, Texas, USA
Distance from station: SW 28mi, 45km
Updated: Tue, 18-Dec-2018 4:37am CST
Mostly Cloudy
Mostly Cloudy
 Wind from calm
Wind: Calm
Temperature: 39°F , 4°C
Dew Point: 36°F , 2°C
Humidity: 87%
Barometer: 30.11 inHg , 1019.6 hPa
Clouds: Mostly Cloudy
Visibility: 10 miles , 16 km
Cloud details: Mostly Cloudy 500 ft
2018/12/18 10:37 KATT 181037Z AUTO 00000KT 10SM BKN005 04/02 A3011 RMK AO2 CIG 002V006 T00390022
KAUS - Austin, Texas, USA
Distance from station: SSW 32mi, 51km
Updated: Tue, 18-Dec-2018 3:53am CST
Few Clouds
Few Clouds
 Wind from calm
Wind: Calm
Temperature: 36°F , 2°C
Dew Point: 32°F , 0°C
Humidity: 87%
Barometer: 30.11 inHg , 1019.6 hPa
Clouds: Few Clouds
Visibility: 10 miles , 16 km
Cloud details: Few Clouds 700 ft
Few Clouds 25000 ft
2018/12/18 09:53 KAUS 180953Z 00000KT 10SM FEW007 FEW250 02/00 A3011 RMK AO2 SLP198 T00170000 $
 
KRYW - Lago Vista, Texas, USA
Distance from station: W 33mi, 54km
Updated: Tue, 18-Dec-2018 4:35am CST
Clear
Clear
 Wind from S
Wind: S 5 mph , 7 km/h
Temperature: 48°F , 9°C
Wind Chill: 46°F , 8°C
Dew Point: 39°F , 4°C
Humidity: 71%
Barometer: 30.10 inHg , 1019.3 hPa
Clouds: Clear
Visibility: 10 miles , 16 km
2018/12/18 10:35 KRYW 181035Z AUTO 17004KT 10SM CLR 09/04 A3010 RMK AO2 T00880042
KILE - Killeen Muni, Texas, USA
Distance from station: NNW 37mi, 59km
Updated: Tue, 18-Dec-2018 3:56am CST
Clear
Clear
 Wind from calm
Wind: Calm
Temperature: 34°F , 1°C
Dew Point: 34°F , 1°C
Humidity: 100%
Barometer: 30.11 inHg , 1019.6 hPa
Clouds: Clear
Visibility: 10 miles , 16 km
2018/12/18 09:56 KILE 180956Z AUTO 00000KT 10SM CLR 01/01 A3011 RMK AO2 SLP218 T00110006 FZRANO
 
KTPL - Temple/Miller, Texas, USA
Distance from station: N 38mi, 61km
Updated: Tue, 18-Dec-2018 3:51am CST
Fog, Clear
Fog, Clear
 Wind from calm
Wind: Calm
Temperature: 34°F , 1°C
Dew Point: 34°F , 1°C
Humidity: 100%
Barometer: 30.13 inHg , 1020.3 hPa
Summary: Fog
Clouds: Clear
Visibility: 1/2 mile , 2 km
2018/12/18 09:51 KTPL 180951Z AUTO 00000KT 1/2SM FG CLR 01/01 A3013 RMK AO2 SLP218 T00110011 FZRANO RVRNO
KGYB - Giddings-Lee, Texas, USA
Distance from station: SE 39mi, 62km
Updated: Tue, 18-Dec-2018 4:35am CST
Light drizzle, Overcast
Light drizzle, Overcast
 Wind from calm
Wind: Calm
Temperature: 43°F , 6°C
Dew Point: 41°F , 5°C
Humidity: 93%
Barometer: 30.12 inHg , 1020 hPa
Summary: Light Drizzle
Clouds: Overcast
Visibility: less than 1/4 mile , 2 km
Cloud details: Overcast 100 ft
2018/12/18 10:35 KGYB 181035Z AUTO 00000KT M1/4SM -DZ OVC001 06/05 A3012 RMK AO2 T00560050
 
KGRK - Gray/Ft Hood, Texas, USA
Distance from station: NW 42mi, 67km
Updated: Tue, 18-Dec-2018 3:58am CST
Clear
Clear
 Wind from calm
Wind: Calm
Temperature: 36°F , 2°C
Dew Point: 32°F , 0°C
Humidity: 87%
Barometer: 30.10 inHg , 1019.3 hPa
Clouds: Clear
Visibility: 8 miles , 13 km
2018/12/18 09:58 KGRK 180958Z AUTO 00000KT 8SM CLR 02/00 A3010 RMK AO2 SLPNO T00170004
KHLR - Ft Hood/Killeen, Texas, USA
Distance from station: NNW 42mi, 67km
Updated: Tue, 18-Dec-2018 3:58am CST
Clear
Clear
 Wind from calm
Wind: Calm
Temperature: 37°F , 3°C
Dew Point: 34°F , 1°C
Humidity: 87%
Barometer: 30.07 inHg , 1018.3 hPa
Clouds: Clear
Visibility: 8 miles , 13 km
2018/12/18 09:58 KHLR 180958Z AUTO 00000KT 8SM CLR 03/01 A3007 RMK AO2 SLPNO T00300010
 
KRWV - Caldwell, Texas, USA
Distance from station: E 43mi, 69km
Updated: Tue, 18-Dec-2018 4:35am CST
Clear
Clear
 Wind from NNW
Wind: NNW 3 mph , 6 km/h
Temperature: 37°F , 3°C
Dew Point: 36°F , 2°C
Humidity: 93%
Barometer: 30.12 inHg , 1020 hPa
Clouds: Clear
Visibility: 10 miles , 16 km
2018/12/18 10:35 KRWV 181035Z AUTO 34003KT 10SM CLR 03/02 A3012 RMK AO2 T00280020
KBMQ - Burnet, Texas, USA
Distance from station: WNW 50mi, 80km
Updated: Tue, 18-Dec-2018 3:53am CST
Clear
Clear
 Wind from calm
Wind: Calm
Temperature: 37°F , 3°C
Dew Point: 34°F , 1°C
Humidity: 87%
Barometer: 30.12 inHg , 1020 hPa
Clouds: Clear
Visibility: 10 miles , 16 km
2018/12/18 09:53 KBMQ 180953Z AUTO 00000KT 10SM CLR 03/01 A3012 RMK AO2 SLP193 T00280006